Time;durP1;ratioP1;P1;durP2;ratioP2;P2;SDS_P1;SDS_P2;PMS_P1;PMS_P2;Temp;Humidity;BMP_temperature;BMP_pressure;BME280_temperature;BME280_humidity;BME280_pressure;Samples;Min_cycle;Max_cycle;Signal;HPM_P1;HPM_P2
2021/07/20 00:01:34;;;;;;;10.90;5.20;;;21.60;92.20;;;;;;5049548;28;20047;-69
2021/07/20 00:04:38;;;;;;;15.13;6.22;;;21.50;92.10;;;;;;5035993;28;20396;-68
2021/07/20 00:07:42;;;;;;;13.88;6.00;;;21.50;92.30;;;;;;5030751;28;20499;-68
2021/07/20 00:10:55;;;;;;;17.17;5.70;;;21.50;92.40;;;;;;5030602;28;20072;-68
2021/07/20 00:14:00;;;;;;;17.65;5.38;;;21.50;92.10;;;;;;5030694;28;20503;-68
2021/07/20 00:17:05;;;;;;;15.35;5.25;;;21.60;92.00;;;;;;5029718;28;20055;-69
2021/07/20 00:20:15;;;;;;;18.17;5.95;;;21.60;92.00;;;;;;5030335;28;20057;-69
2021/07/20 00:23:20;;;;;;;11.48;4.95;;;21.50;92.10;;;;;;5030834;28;20049;-68
2021/07/20 00:26:25;;;;;;;11.75;5.47;;;21.50;92.20;;;;;;5029988;28;20412;-68
2021/07/20 00:29:29;;;;;;;12.30;4.90;;;21.60;92.20;;;;;;5029653;28;20396;-68
2021/07/20 00:32:34;;;;;;;19.60;5.38;;;21.50;92.20;;;;;;5030247;28;20120;-68
2021/07/20 00:35:44;;;;;;;13.52;5.63;;;21.50;92.50;;;;;;5030034;28;20052;-68
2021/07/20 00:38:49;;;;;;;14.07;5.30;;;21.50;92.50;;;;;;5029286;28;20052;-68
2021/07/20 00:41:54;;;;;;;13.25;5.82;;;21.40;92.60;;;;;;5029002;28;20047;-68
2021/07/20 00:44:58;;;;;;;14.35;5.57;;;21.40;92.70;;;;;;5029247;28;20403;-68
2021/07/20 00:48:03;;;;;;;11.27;5.00;;;21.30;93.20;;;;;;5028977;28;20498;-68
2021/07/20 00:51:10;;;;;;;17.67;5.10;;;21.20;93.20;;;;;;5028843;28;20044;-68
2021/07/20 00:54:15;;;;;;;13.05;5.65;;;21.10;93.50;;;;;;5030574;28;20044;-68
2021/07/20 00:57:21;;;;;;;11.27;5.03;;;21.00;93.60;;;;;;5029225;28;20040;-69
2021/07/20 01:00:26;;;;;;;16.35;5.20;;;20.90;94.10;;;;;;5028025;28;20056;-68
2021/07/20 01:03:33;;;;;;;15.73;6.15;;;20.80;94.30;;;;;;5034663;28;20032;-68
2021/07/20 01:06:41;;;;;;;15.02;5.93;;;20.60;94.50;;;;;;5048558;28;20089;-69
2021/07/20 01:09:48;;;;;;;14.23;5.95;;;20.50;95.10;;;;;;5048914;28;20400;-68
2021/07/20 01:12:53;;;;;;;16.80;6.93;;;20.40;95.20;;;;;;5048669;28;20399;-68
2021/07/20 01:15:58;;;;;;;12.82;5.78;;;20.40;95.20;;;;;;5048687;28;20056;-68
2021/07/20 01:19:06;;;;;;;12.98;5.45;;;20.40;95.30;;;;;;5049663;28;20052;-69
2021/07/20 01:22:17;;;;;;;10.98;6.15;;;20.40;95.50;;;;;;5048928;28;20051;-68
2021/07/20 01:25:23;;;;;;;14.95;6.30;;;20.30;95.50;;;;;;5049604;28;20387;-68
2021/07/20 01:28:29;;;;;;;14.45;6.18;;;20.30;95.70;;;;;;5048377;28;20077;-68
2021/07/20 01:31:41;;;;;;;14.90;5.60;;;20.20;96.10;;;;;;5048062;28;20602;-68
2021/07/20 01:34:50;;;;;;;15.55;6.38;;;20.20;96.10;;;;;;5049475;28;20044;-68
2021/07/20 01:37:57;;;;;;;15.52;6.93;;;20.20;96.10;;;;;;5049140;28;20502;-68
2021/07/20 01:41:08;;;;;;;12.93;5.85;;;20.20;96.20;;;;;;5048996;28;20064;-68
2021/07/20 01:44:13;;;;;;;13.38;5.70;;;20.30;95.90;;;;;;5053151;28;20052;-68
2021/07/20 01:47:27;;;;;;;15.13;6.15;;;20.30;96.30;;;;;;5053093;28;20056;-68
2021/07/20 01:50:32;;;;;;;12.52;5.68;;;20.30;96.30;;;;;;5052157;28;20606;-69
2021/07/20 01:53:37;;;;;;;18.38;6.40;;;20.20;96.40;;;;;;5053370;28;20075;-68
2021/07/20 01:56:42;;;;;;;18.23;6.30;;;20.20;96.60;;;;;;5053022;28;20036;-69
2021/07/20 01:59:47;;;;;;;18.42;6.32;;;20.10;96.80;;;;;;5051983;28;20403;-68
2021/07/20 02:09:58;;;;;;;15.98;6.70;;;19.80;97.80;;;;;;5052165;28;20051;-68
2021/07/20 02:13:05;;;;;;;9.90;6.13;;;19.70;98.20;;;;;;5012419;28;20500;-68
2021/07/20 02:16:44;;;;;;;18.50;6.47;;;19.60;98.10;;;;;;5012176;28;21014;-69
2021/07/20 02:19:55;;;;;;;10.65;5.78;;;19.60;98.20;;;;;;5028248;28;20399;-68
2021/07/20 02:23:24;;;;;;;16.58;7.38;;;19.60;98.60;;;;;;5052278;28;20044;-68
2021/07/20 02:26:28;;;;;;;12.57;6.25;;;19.50;98.80;;;;;;5051689;28;20048;-68
2021/07/20 02:29:34;;;;;;;18.38;6.72;;;19.40;99.00;;;;;;5051618;28;20056;-68
2021/07/20 02:32:44;;;;;;;14.02;6.07;;;19.30;99.70;;;;;;5052294;28;20040;-68
2021/07/20 02:35:53;;;;;;;19.27;7.50;;;19.20;99.90;;;;;;5051482;28;20051;-68
2021/07/20 02:39:07;;;;;;;18.80;7.30;;;19.10;99.90;;;;;;5011151;28;20503;-68
2021/07/20 02:42:18;;;;;;;16.10;7.70;;;19.00;99.90;;;;;;5011360;28;20409;-68
2021/07/20 02:45:25;;;;;;;12.77;6.47;;;18.80;99.90;;;;;;5010679;28;20072;-68
2021/07/20 02:48:31;;;;;;;11.35;6.80;;;18.70;99.90;;;;;;5011318;28;20041;-68
2021/07/20 02:51:36;;;;;;;11.07;6.72;;;18.70;99.90;;;;;;5012155;28;20069;-68
2021/07/20 02:54:41;;;;;;;17.20;6.18;;;18.80;99.90;;;;;;5012023;28;20527;-68
2021/07/20 02:57:50;;;;;;;17.85;7.30;;;18.80;99.90;;;;;;5010915;28;20596;-68
2021/07/20 03:00:56;;;;;;;15.02;7.13;;;18.70;99.90;;;;;;5011035;28;20042;-68
2021/07/20 03:04:00;;;;;;;16.50;7.22;;;18.70;99.90;;;;;;5011965;28;20053;-68
2021/07/20 03:07:13;;;;;;;11.52;6.28;;;18.70;99.90;;;;;;5022455;28;20105;-68
2021/07/20 03:10:28;;;;;;;16.65;6.97;;;18.80;99.90;;;;;;5016571;28;20044;-68
2021/07/20 03:13:38;;;;;;;13.65;6.32;;;18.90;99.90;;;;;;5050631;28;20040;-68
2021/07/20 03:16:44;;;;;;;14.73;6.70;;;18.90;99.90;;;;;;5051345;28;20044;-68
2021/07/20 03:19:52;;;;;;;12.35;5.85;;;18.90;99.90;;;;;;5050403;28;20051;-68
2021/07/20 03:23:02;;;;;;;13.07;5.68;;;18.80;99.90;;;;;;5051292;28;20499;-68
2021/07/20 03:26:10;;;;;;;18.58;6.32;;;18.70;99.90;;;;;;5050816;28;20510;-69
2021/07/20 03:29:19;;;;;;;12.55;6.30;;;18.70;99.90;;;;;;5050088;28;20048;-68
2021/07/20 03:32:25;;;;;;;12.45;5.93;;;18.70;99.90;;;;;;5050343;28;20490;-68
2021/07/20 03:35:32;;;;;;;11.65;5.70;;;18.80;99.90;;;;;;5050365;28;20040;-68
2021/07/20 03:38:39;;;;;;;9.38;5.50;;;18.80;99.90;;;;;;5010594;28;20048;-69
2021/07/20 03:41:45;;;;;;;13.32;6.65;;;18.70;99.90;;;;;;5011385;28;20049;-69
2021/07/20 03:44:51;;;;;;;11.18;6.05;;;18.60;99.90;;;;;;5011393;28;20048;-68
2021/07/20 03:47:56;;;;;;;11.55;6.18;;;18.60;99.90;;;;;;5010332;28;20045;-68
2021/07/20 03:51:17;;;;;;;16.48;6.80;;;18.50;99.90;;;;;;5010222;28;20053;-68
2021/07/20 03:54:22;;;;;;;10.88;6.38;;;18.60;99.90;;;;;;5010357;28;20254;-68
2021/07/20 03:57:28;;;;;;;15.35;7.43;;;18.60;99.90;;;;;;5010265;28;20057;-68
2021/07/20 04:00:34;;;;;;;16.08;7.10;;;18.50;99.90;;;;;;5009707;28;20052;-68
2021/07/20 04:03:41;;;;;;;14.82;6.70;;;18.50;99.90;;;;;;5010181;28;20049;-68
2021/07/20 04:06:46;;;;;;;14.88;6.72;;;18.40;99.90;;;;;;5010826;28;20061;-68
2021/07/20 04:10:15;;;;;;;13.48;6.35;;;18.30;99.90;;;;;;5013113;28;20057;-68
2021/07/20 04:13:36;;;;;;;19.35;7.13;;;18.20;99.90;;;;;;5050846;28;20387;-68
2021/07/20 04:17:00;;;;;;;16.13;7.03;;;18.20;99.90;;;;;;5050412;28;20387;-68
2021/07/20 04:20:05;;;;;;;13.93;6.82;;;18.20;99.90;;;;;;5048949;28;20040;-68
2021/07/20 04:23:16;;;;;;;17.40;6.40;;;18.20;99.90;;;;;;5049267;28;20407;-68
2021/07/20 04:26:28;;;;;;;18.58;7.07;;;18.30;99.90;;;;;;5039481;28;20044;-68
2021/07/20 04:29:33;;;;;;;15.93;6.40;;;18.40;99.90;;;;;;5049229;28;20326;-68
2021/07/20 04:32:44;;;;;;;18.58;6.88;;;18.60;99.90;;;;;;5016141;28;20044;-68
2021/07/20 04:35:50;;;;;;;19.88;6.50;;;18.70;99.90;;;;;;5029375;28;20040;-68
2021/07/20 04:38:57;;;;;;;15.45;6.32;;;18.80;99.90;;;;;;5029219;28;20495;-68
2021/07/20 04:42:04;;;;;;;13.45;6.38;;;19.00;99.90;;;;;;5024561;28;20416;-68
2021/07/20 04:45:10;;;;;;;13.43;6.00;;;19.00;99.90;;;;;;5028516;28;20048;-68
2021/07/20 04:48:38;;;;;;;15.52;6.80;;;19.80;99.90;;;;;;5028349;28;20044;-68
2021/07/20 04:51:52;;;;;;;15.07;6.13;;;21.50;99.90;;;;;;5016561;28;20499;-68
2021/07/20 04:54:58;;;;;;;14.25;6.40;;;22.40;99.90;;;;;;5023173;28;20053;-68
2021/07/20 04:58:03;;;;;;;15.45;6.22;;;22.50;99.90;;;;;;5029494;28;20412;-67
2021/07/20 05:01:08;;;;;;;22.85;6.53;;;23.10;99.90;;;;;;5027711;28;20040;-68
2021/07/20 05:04:16;;;;;;;14.40;6.07;;;23.90;99.90;;;;;;5028702;28;20053;-68
2021/07/20 05:07:24;;;;;;;13.40;5.63;;;24.50;98.80;;;;;;5029072;28;20040;-68
2021/07/20 05:10:32;;;;;;;13.45;6.35;;;24.90;98.10;;;;;;5017781;28;20043;-68
2021/07/20 05:14:04;;;;;;;14.38;6.75;;;26.20;96.60;;;;;;5030336;28;20040;-68
2021/07/20 05:17:10;;;;;;;11.68;5.63;;;27.50;94.70;;;;;;5026303;28;21257;-67
2021/07/20 05:20:20;;;;;;;14.15;5.82;;;27.60;93.60;;;;;;5027637;28;20050;-68
2021/07/20 05:23:40;;;;;;;11.30;5.50;;;28.20;92.90;;;;;;5028764;28;20045;-68
2021/07/20 05:27:17;;;;;;;13.00;5.88;;;28.60;91.90;;;;;;5042123;28;20388;-68
2021/07/20 05:30:22;;;;;;;17.42;5.78;;;27.70;92.40;;;;;;5022987;28;20048;-68
2021/07/20 05:33:29;;;;;;;11.73;5.72;;;26.60;93.20;;;;;;5032595;28;20049;-68
2021/07/20 05:36:39;;;;;;;8.82;5.53;;;25.60;94.10;;;;;;5013890;28;20066;-68
2021/07/20 05:39:43;;;;;;;11.00;5.95;;;26.10;94.70;;;;;;5020057;28;20044;-68
2021/07/20 05:42:58;;;;;;;13.98;5.65;;;25.70;95.10;;;;;;5032700;28;20045;-68
2021/07/20 05:46:11;;;;;;;12.77;6.07;;;25.30;95.30;;;;;;5031133;28;20491;-68
2021/07/20 05:49:16;;;;;;;10.95;5.38;;;27.00;94.60;;;;;;5031900;28;20061;-68
2021/07/20 05:52:20;;;;;;;13.43;5.63;;;28.60;93.30;;;;;;5027399;28;20045;-68
2021/07/20 05:55:31;;;;;;;13.00;5.30;;;29.60;92.20;;;;;;5030092;28;20057;-68
2021/07/20 05:58:37;;;;;;;12.07;5.60;;;27.80;92.00;;;;;;5022389;28;20045;-68
2021/07/20 06:01:42;;;;;;;15.07;5.72;;;27.00;93.30;;;;;;5021879;28;20053;-68
2021/07/20 06:04:52;;;;;;;11.23;5.75;;;25.10;94.30;;;;;;5025358;28;20044;-68
2021/07/20 06:07:58;;;;;;;11.02;5.75;;;26.20;94.90;;;;;;5034109;28;20410;-68
2021/07/20 06:11:04;;;;;;;10.80;5.38;;;27.60;93.60;;;;;;5028190;28;20044;-68
2021/07/20 06:14:10;;;;;;;12.05;5.45;;;28.50;92.50;;;;;;5033103;28;20040;-68
2021/07/20 06:17:14;;;;;;;9.73;5.35;;;29.50;91.90;;;;;;5032825;28;20053;-68
2021/07/20 06:20:18;;;;;;;8.75;5.57;;;30.20;90.90;;;;;;5022578;28;20037;-68
2021/07/20 06:23:26;;;;;;;8.60;5.05;;;29.90;90.60;;;;;;5032962;28;20044;-69
2021/07/20 06:26:32;;;;;;;9.07;4.65;;;30.30;90.30;;;;;;5013533;28;20049;-69
2021/07/20 06:29:38;;;;;;;11.55;5.30;;;30.90;89.90;;;;;;5026091;28;20041;-68
2021/07/20 06:32:43;;;;;;;10.40;5.57;;;31.40;88.60;;;;;;5013773;28;20114;-68
2021/07/20 06:35:47;;;;;;;12.10;5.90;;;32.00;87.30;;;;;;5018869;28;20044;-69
2021/07/20 06:38:53;;;;;;;12.80;5.35;;;31.80;86.60;;;;;;5024907;28;20044;-69
2021/07/20 06:42:00;;;;;;;14.15;5.13;;;32.30;85.90;;;;;;5028856;28;20045;-69
2021/07/20 06:45:05;;;;;;;11.27;5.10;;;31.90;84.70;;;;;;5029192;28;20056;-68
2021/07/20 06:48:12;;;;;;;10.57;4.88;;;30.70;85.00;;;;;;5032100;28;20044;-68
2021/07/20 06:51:17;;;;;;;12.02;5.50;;;28.20;89.80;;;;;;5030833;28;20036;-68
2021/07/20 06:54:22;;;;;;;15.27;5.03;;;29.00;90.20;;;;;;5032829;28;20688;-67
2021/07/20 06:57:27;;;;;;;13.93;5.85;;;30.40;89.20;;;;;;5024371;28;20041;-69
2021/07/20 07:00:33;;;;;;;12.00;5.32;;;29.30;90.30;;;;;;5020224;28;20037;-68
2021/07/20 07:03:47;;;;;;;19.05;6.13;;;29.30;90.00;;;;;;5013107;28;20049;-68
2021/07/20 07:06:55;;;;;;;8.27;5.18;;;30.10;88.80;;;;;;5025921;28;20053;-68
2021/07/20 07:10:01;;;;;;;13.90;4.40;;;30.30;86.60;;;;;;5025369;28;20052;-69
2021/07/20 07:13:08;;;;;;;11.20;4.70;;;30.80;87.40;;;;;;5031647;28;20048;-68
2021/07/20 07:16:13;;;;;;;9.68;4.85;;;30.50;86.60;;;;;;5017243;28;20396;-68
2021/07/20 07:19:19;;;;;;;9.15;4.38;;;30.90;86.70;;;;;;5029777;28;20041;-68
2021/07/20 07:22:25;;;;;;;11.95;5.28;;;31.50;86.50;;;;;;5012528;28;20057;-68
2021/07/20 07:25:30;;;;;;;10.48;4.85;;;31.00;85.50;;;;;;5012641;28;20045;-68
2021/07/20 07:28:35;;;;;;;10.73;4.90;;;30.50;86.00;;;;;;5014072;28;20048;-69
2021/07/20 07:31:42;;;;;;;10.80;5.05;;;30.10;86.70;;;;;;5025791;28;20041;-68
2021/07/20 07:34:48;;;;;;;13.07;5.20;;;31.90;84.80;;;;;;5032224;28;20372;-68
2021/07/20 07:37:56;;;;;;;15.75;5.60;;;30.90;86.10;;;;;;5028466;28;20045;-68
2021/07/20 07:41:02;;;;;;;11.98;4.57;;;31.80;85.20;;;;;;5017423;28;20049;-69
2021/07/20 07:44:07;;;;;;;9.40;4.45;;;31.60;83.90;;;;;;5030833;28;20048;-68
2021/07/20 07:47:12;;;;;;;12.43;5.65;;;32.30;83.50;;;;;;5013421;28;20048;-67
2021/07/20 07:50:17;;;;;;;10.25;4.97;;;31.40;83.50;;;;;;5029475;28;20060;-69
2021/07/20 07:53:22;;;;;;;12.35;5.60;;;32.50;84.10;;;;;;5022505;28;20036;-68
2021/07/20 07:56:28;;;;;;;11.82;4.75;;;34.10;81.50;;;;;;5031146;28;20064;-69
2021/07/20 07:59:34;;;;;;;10.55;4.88;;;33.80;80.40;;;;;;5029124;28;20036;-68
2021/07/20 08:02:41;;;;;;;11.75;4.60;;;34.20;80.00;;;;;;5030145;28;20388;-68
2021/07/20 08:05:47;;;;;;;11.10;4.35;;;33.00;78.50;;;;;;5020876;28;20388;-68
2021/07/20 08:08:58;;;;;;;9.73;4.55;;;34.10;77.60;;;;;;5013750;28;20048;-68
2021/07/20 08:12:04;;;;;;;16.65;4.85;;;33.80;78.80;;;;;;5032623;28;20052;-68
2021/07/20 08:15:09;;;;;;;8.45;4.05;;;34.90;77.30;;;;;;5021893;28;20041;-68
2021/07/20 08:18:13;;;;;;;10.45;4.00;;;34.00;77.20;;;;;;5017623;28;20041;-69
2021/07/20 08:21:17;;;;;;;9.13;4.25;;;34.30;77.00;;;;;;5013118;28;20053;-68
2021/07/20 08:24:22;;;;;;;14.55;4.18;;;34.50;77.60;;;;;;5013306;28;20037;-68
2021/07/20 08:27:32;;;;;;;10.20;3.85;;;35.40;75.20;;;;;;5021861;28;20064;-68
2021/07/20 08:30:41;;;;;;;8.15;4.00;;;35.00;77.00;;;;;;5021895;28;20044;-68
2021/07/20 08:33:48;;;;;;;10.80;3.70;;;35.40;75.40;;;;;;5028463;28;20032;-68
2021/07/20 08:36:56;;;;;;;14.35;4.32;;;35.30;74.50;;;;;;5012503;28;20053;-68
2021/07/20 08:40:08;;;;;;;8.40;3.33;;;34.80;75.30;;;;;;5022351;28;20037;-68
2021/07/20 08:43:25;;;;;;;12.93;4.68;;;37.70;71.60;;;;;;5024747;28;20041;-65
2021/07/20 08:46:57;;;;;;;10.25;3.63;;;39.40;70.60;;;;;;5023519;28;20502;-68
2021/07/20 08:50:24;;;;;;;9.38;3.95;;;40.40;69.10;;;;;;5023512;28;20045;-67
2021/07/20 08:53:36;;;;;;;14.65;4.25;;;37.70;68.80;;;;;;5022473;28;20045;-68
2021/07/20 08:56:45;;;;;;;7.20;3.60;;;37.80;70.70;;;;;;5028008;28;20044;-68
2021/07/20 08:59:58;;;;;;;12.68;4.25;;;38.30;70.10;;;;;;5028672;28;20048;-67
2021/07/20 09:03:18;;;;;;;10.70;4.13;;;40.60;66.80;;;;;;5027575;28;20044;-67
2021/07/20 09:06:51;;;;;;;6.80;3.13;;;39.60;68.10;;;;;;5025613;28;20535;-68
2021/07/20 09:09:57;;;;;;;9.85;3.72;;;40.30;66.10;;;;;;5010586;28;20041;-67
2021/07/20 09:13:03;;;;;;;14.85;2.90;;;42.00;63.80;;;;;;5025953;28;20045;-67
2021/07/20 09:16:30;;;;;;;9.60;3.03;;;41.40;62.00;;;;;;5024130;28;20084;-67
2021/07/20 09:19:42;;;;;;;7.82;3.20;;;41.50;58.30;;;;;;5030653;28;20056;-68
2021/07/20 09:22:55;;;;;;;14.25;3.22;;;43.50;59.70;;;;;;5024886;28;20052;-68
2021/07/20 09:26:14;;;;;;;11.88;2.88;;;43.40;57.70;;;;;;5010198;28;20367;-68
2021/07/20 09:29:25;;;;;;;6.53;2.60;;;45.10;56.70;;;;;;5019617;28;20045;-68
2021/07/20 09:32:58;;;;;;;8.80;2.92;;;45.90;55.90;;;;;;5030164;28;20056;-69
2021/07/20 09:36:25;;;;;;;11.05;3.42;;;44.90;53.20;;;;;;5030400;28;20076;-67
2021/07/20 09:39:53;;;;;;;16.98;3.22;;;39.30;56.10;;;;;;5030937;28;20056;-67
2021/07/20 09:43:06;;;;;;;9.10;2.60;;;38.00;57.60;;;;;;5018818;28;20052;-67
2021/07/20 09:46:39;;;;;;;12.70;2.72;;;39.60;53.90;;;;;;5020995;28;20057;-68
2021/07/20 09:49:58;;;;;;;11.00;2.80;;;42.30;53.70;;;;;;5017197;28;20040;-69
2021/07/20 09:53:19;;;;;;;5.25;2.55;;;45.10;51.80;;;;;;5028139;28;20041;-69
2021/07/20 09:56:58;;;;;;;11.43;3.13;;;45.20;52.00;;;;;;5028923;28;20040;-68
2021/07/20 10:00:34;;;;;;;8.60;3.03;;;45.60;52.00;;;;;;5011808;28;20229;-67
2021/07/20 10:04:16;;;;;;;9.18;2.95;;;43.20;52.60;;;;;;5013032;28;20053;-68
2021/07/20 10:07:40;;;;;;;9.75;2.75;;;42.80;53.40;;;;;;5031823;28;20053;-68
2021/07/20 10:11:07;;;;;;;10.07;3.05;;;45.70;52.30;;;;;;5031660;28;20044;-67
2021/07/20 10:14:30;;;;;;;12.05;3.13;;;39.90;52.80;;;;;;5036184;28;20052;-68
2021/07/20 10:18:00;;;;;;;12.55;3.05;;;43.00;53.40;;;;;;5027392;28;20040;-68
2021/07/20 10:21:06;;;;;;;11.25;3.38;;;45.20;52.20;;;;;;5021726;28;20037;-68
2021/07/20 10:24:14;;;;;;;15.07;3.28;;;42.50;52.80;;;;;;5031299;28;20048;-66
2021/07/20 10:27:26;;;;;;;11.07;3.22;;;38.80;53.60;;;;;;5027165;28;20099;-68
2021/07/20 10:30:36;;;;;;;9.77;2.67;;;40.60;55.30;;;;;;5019756;28;20048;-68
2021/07/20 10:34:07;;;;;;;11.15;3.28;;;43.40;52.30;;;;;;5029494;28;20036;-69
2021/07/20 10:37:22;;;;;;;10.45;2.72;;;44.70;52.40;;;;;;5032597;28;20047;-69
2021/07/20 10:40:28;;;;;;;9.57;3.05;;;44.30;51.60;;;;;;5019975;28;20512;-69
2021/07/20 10:43:42;;;;;;;10.75;3.13;;;43.90;52.60;;;;;;5012645;28;20400;-68
2021/07/20 10:46:53;;;;;;;9.02;2.72;;;45.90;51.60;;;;;;5012100;28;20061;-69
2021/07/20 10:50:08;;;;;;;5.05;2.50;;;47.20;50.50;;;;;;5017059;28;20053;-66
2021/07/20 10:53:24;;;;;;;7.85;2.90;;;47.80;49.90;;;;;;5032170;28;20041;-66
2021/07/20 10:57:07;;;;;;;10.77;3.22;;;47.40;49.50;;;;;;5020625;28;20377;-67
2021/07/20 11:00:14;;;;;;;12.23;4.05;;;45.50;47.90;;;;;;5011872;28;20053;-68
2021/07/20 11:03:35;;;;;;;10.60;3.38;;;38.90;51.80;;;;;;5019392;28;20056;-68
2021/07/20 11:06:42;;;;;;;8.57;3.38;;;39.40;53.90;;;;;;5018406;28;20053;-68
2021/07/20 11:09:50;;;;;;;16.02;3.92;;;42.00;52.90;;;;;;5020264;28;20045;-68
2021/07/20 11:12:59;;;;;;;16.10;4.15;;;44.60;50.30;;;;;;5030560;28;20495;-66
2021/07/20 11:16:08;;;;;;;10.88;3.63;;;46.40;48.70;;;;;;5018528;28;20087;-66
2021/07/20 11:19:13;;;;;;;11.38;3.47;;;47.50;48.00;;;;;;5031633;28;20424;-67
2021/07/20 11:22:18;;;;;;;12.50;3.47;;;48.70;47.20;;;;;;5027273;28;20680;-67
2021/07/20 11:25:23;;;;;;;8.18;3.40;;;49.50;47.50;;;;;;5031418;28;20052;-66
2021/07/20 11:28:28;;;;;;;11.57;3.47;;;48.70;46.30;;;;;;5014601;28;20044;-65
2021/07/20 11:31:48;;;;;;;10.93;3.40;;;48.70;46.50;;;;;;5018333;28;20037;-65
2021/07/20 11:34:59;;;;;;;10.80;3.65;;;49.00;46.40;;;;;;5015182;28;20124;-66
2021/07/20 11:38:11;;;;;;;7.97;3.47;;;48.80;46.50;;;;;;5017867;28;20029;-65
2021/07/20 11:41:25;;;;;;;7.65;3.60;;;49.00;47.10;;;;;;5019763;28;20479;-65
2021/07/20 11:44:48;;;;;;;14.38;3.47;;;48.50;47.50;;;;;;5010043;28;20048;-67
2021/07/20 11:48:06;;;;;;;7.82;3.25;;;48.10;48.10;;;;;;5012503;28;20048;-66
2021/07/20 11:51:26;;;;;;;9.10;3.33;;;47.90;47.40;;;;;;5022518;28;20049;-68
2021/07/20 11:54:42;;;;;;;13.75;3.75;;;45.00;49.30;;;;;;5021388;28;20466;-68
2021/07/20 11:57:58;;;;;;;13.95;4.03;;;44.20;49.50;;;;;;5020150;28;20138;-68
2021/07/20 12:01:24;;;;;;;13.07;3.40;;;44.60;49.60;;;;;;5018154;28;20048;-67
2021/07/20 12:04:53;;;;;;;11.20;3.25;;;42.60;51.00;;;;;;5021463;28;20036;-68
2021/07/20 12:08:10;;;;;;;12.35;3.72;;;43.80;50.50;;;;;;5018742;28;20049;-68
2021/07/20 12:11:25;;;;;;;9.63;3.47;;;41.30;51.20;;;;;;5021130;28;20388;-68
2021/07/20 12:14:30;;;;;;;13.10;3.63;;;41.70;52.50;;;;;;5023093;28;20052;-67
2021/07/20 12:17:34;;;;;;;14.25;4.35;;;40.30;51.50;;;;;;5020776;28;20049;-68
2021/07/20 12:20:41;;;;;;;11.75;3.88;;;40.10;52.80;;;;;;5024723;28;20084;-68
2021/07/20 12:23:46;;;;;;;15.55;3.78;;;41.20;52.00;;;;;;5017450;28;20439;-68
2021/07/20 12:26:51;;;;;;;10.57;4.10;;;37.70;53.50;;;;;;5019475;28;20044;-67
2021/07/20 12:29:57;;;;;;;12.32;4.07;;;39.80;53.90;;;;;;5020052;28;20048;-67
2021/07/20 12:33:11;;;;;;;17.88;3.80;;;39.90;54.10;;;;;;5021697;28;20056;-68
2021/07/20 12:36:15;;;;;;;14.07;4.13;;;40.80;53.60;;;;;;5020489;28;20045;-66
2021/07/20 12:39:23;;;;;;;10.40;3.70;;;39.30;53.90;;;;;;5020836;28;20048;-67
2021/07/20 12:42:40;;;;;;;17.10;4.35;;;38.80;55.80;;;;;;5019209;28;20403;-67
2021/07/20 12:45:46;;;;;;;14.63;4.03;;;38.70;52.80;;;;;;5018880;28;20064;-68
2021/07/20 12:48:53;;;;;;;12.18;4.63;;;38.00;55.20;;;;;;5019819;28;20052;-68
2021/07/20 12:51:57;;;;;;;13.15;3.95;;;39.00;53.20;;;;;;5022888;28;20125;-68
2021/07/20 12:55:01;;;;;;;10.27;3.50;;;39.90;54.10;;;;;;5018559;28;20053;-68
2021/07/20 12:58:10;;;;;;;13.45;3.58;;;41.10;51.40;;;;;;5018827;28;20040;-67
2021/07/20 13:01:21;;;;;;;14.95;3.53;;;40.70;52.60;;;;;;5020096;28;20400;-67
2021/07/20 13:04:26;;;;;;;9.05;3.75;;;40.60;51.30;;;;;;5021920;28;20045;-68
2021/07/20 13:07:34;;;;;;;14.35;4.47;;;40.90;51.80;;;;;;5017284;28;20045;-67
2021/07/20 13:10:39;;;;;;;12.05;4.20;;;38.60;53.00;;;;;;5020154;28;20363;-67
2021/07/20 13:13:49;;;;;;;10.63;4.00;;;39.70;53.00;;;;;;5019379;28;20061;-67
2021/07/20 13:16:54;;;;;;;9.60;3.75;;;38.00;55.20;;;;;;5021369;28;20033;-68
2021/07/20 13:19:58;;;;;;;10.95;4.05;;;38.70;53.40;;;;;;5016362;28;20052;-68
2021/07/20 13:23:02;;;;;;;9.60;4.22;;;36.90;55.20;;;;;;5020603;28;20056;-68
2021/07/20 13:26:06;;;;;;;14.23;3.67;;;37.70;55.70;;;;;;5018227;28;20049;-68
2021/07/20 13:29:13;;;;;;;11.45;4.00;;;38.70;54.70;;;;;;5022689;28;20045;-67
2021/07/20 13:32:19;;;;;;;13.05;4.03;;;38.30;53.80;;;;;;5021371;28;20416;-68
2021/07/20 13:35:24;;;;;;;12.30;4.00;;;38.10;54.90;;;;;;5020114;28;20491;-67
2021/07/20 13:38:31;;;;;;;17.33;4.40;;;38.90;54.40;;;;;;5019664;28;20041;-68
2021/07/20 13:41:37;;;;;;;8.10;3.72;;;39.40;53.10;;;;;;5021007;28;20041;-68
2021/07/20 13:44:42;;;;;;;11.85;3.70;;;39.50;52.40;;;;;;5018313;28;20041;-68
2021/07/20 13:47:46;;;;;;;12.35;3.67;;;39.50;52.20;;;;;;5023828;28;20046;-68
2021/07/20 13:50:53;;;;;;;14.82;4.07;;;39.60;52.20;;;;;;5021653;28;20060;-67
2021/07/20 13:54:01;;;;;;;11.57;4.10;;;39.80;51.60;;;;;;5024562;28;20049;-68
2021/07/20 13:57:06;;;;;;;11.10;3.50;;;39.60;51.70;;;;;;5025426;28;20041;-68
2021/07/20 14:00:12;;;;;;;6.38;3.40;;;39.40;50.90;;;;;;5020557;28;20048;-68
2021/07/20 14:03:22;;;;;;;6.80;3.35;;;39.60;52.10;;;;;;5019530;28;20053;-69
2021/07/20 14:06:26;;;;;;;8.52;3.78;;;39.90;51.10;;;;;;5025063;28;20072;-69
2021/07/20 14:09:34;;;;;;;9.52;3.40;;;40.00;51.20;;;;;;5022492;28;20400;-69
2021/07/20 14:12:39;;;;;;;8.52;3.63;;;40.10;52.00;;;;;;5021935;28;20064;-69
2021/07/20 14:15:43;;;;;;;8.98;4.20;;;39.90;52.10;;;;;;5023106;28;20629;-69
2021/07/20 14:18:51;;;;;;;13.18;4.03;;;39.70;51.80;;;;;;5023746;28;20044;-69
2021/07/20 14:21:58;;;;;;;10.40;3.88;;;39.50;52.00;;;;;;5021521;28;20052;-68
2021/07/20 14:25:03;;;;;;;19.77;5.07;;;39.20;52.30;;;;;;5024888;28;20049;-67
2021/07/20 14:28:08;;;;;;;10.40;3.85;;;38.80;52.20;;;;;;5023972;28;20404;-68
2021/07/20 14:31:14;;;;;;;8.95;3.53;;;38.20;51.50;;;;;;5021798;28;20052;-68
2021/07/20 14:34:20;;;;;;;12.32;4.07;;;37.90;51.70;;;;;;5024338;28;20049;-68
2021/07/20 14:37:46;;;;;;;10.93;4.22;;;36.90;54.50;;;;;;5023410;28;20045;-67
2021/07/20 14:40:51;;;;;;;17.98;3.38;;;37.10;54.40;;;;;;5025426;28;20510;-68
2021/07/20 14:44:01;;;;;;;11.38;4.72;;;37.20;53.80;;;;;;5021273;28;20049;-67
2021/07/20 14:47:06;;;;;;;12.18;3.85;;;37.50;53.20;;;;;;5021938;28;20049;-70
2021/07/20 14:50:19;;;;;;;10.75;3.90;;;37.60;54.70;;;;;;5022407;28;20044;-68
2021/07/20 14:53:29;;;;;;;14.50;3.72;;;37.60;53.50;;;;;;5022384;28;20040;-68
2021/07/20 14:56:48;;;;;;;14.70;5.05;;;37.30;54.50;;;;;;5022665;28;20044;-67
2021/07/20 14:59:52;;;;;;;9.80;3.30;;;37.00;55.50;;;;;;5022124;28;20052;-68
2021/07/20 15:02:57;;;;;;;13.23;3.78;;;37.00;55.50;;;;;;5019342;28;20715;-67
2021/07/20 15:06:11;;;;;;;12.27;3.75;;;37.30;55.00;;;;;;5017819;28;20052;-66
2021/07/20 15:09:21;;;;;;;12.32;3.50;;;36.80;54.00;;;;;;5021835;28;20533;-67
2021/07/20 15:12:26;;;;;;;;;;;36.90;55.40;;;;;;5026396;28;20123;-67
2021/07/20 15:15:34;;;;;;;8.82;3.85;;;36.70;54.90;;;;;;5024385;28;19920;-68
2021/07/20 15:18:54;;;;;;;18.30;3.88;;;36.50;55.80;;;;;;5020239;28;20032;-68
2021/07/20 15:22:23;;;;;;;11.18;3.55;;;36.40;56.10;;;;;;5021370;28;20511;-67
2021/07/20 15:25:29;;;;;;;13.13;3.45;;;36.30;56.80;;;;;;5017593;28;20040;-68
2021/07/20 15:28:34;;;;;;;13.57;3.90;;;36.00;56.00;;;;;;5019636;28;20045;-68
2021/07/20 15:31:38;;;;;;;10.82;3.72;;;36.00;56.00;;;;;;5021253;28;20033;-68
2021/07/20 15:34:44;;;;;;;15.65;4.00;;;36.20;56.30;;;;;;5020862;28;20045;-68
2021/07/20 15:37:48;;;;;;;9.48;4.25;;;36.30;57.10;;;;;;5019638;28;20033;-67
2021/07/20 15:40:53;;;;;;;8.63;3.67;;;36.30;56.40;;;;;;5015618;28;20045;-67
2021/07/20 15:43:57;;;;;;;8.40;3.78;;;36.30;56.80;;;;;;5028074;28;20056;-67
2021/07/20 15:47:02;;;;;;;8.65;3.42;;;36.20;57.40;;;;;;5025977;28;20052;-67
2021/07/20 15:50:08;;;;;;;9.85;3.90;;;36.10;57.10;;;;;;5029858;28;20073;-68
2021/07/20 15:53:15;;;;;;;11.80;4.55;;;35.90;57.50;;;;;;5022110;28;20052;-67
2021/07/20 15:56:20;;;;;;;12.75;4.10;;;35.60;59.00;;;;;;5032009;28;20044;-67
2021/07/20 15:59:25;;;;;;;15.02;5.22;;;35.30;59.60;;;;;;5027273;28;20053;-67
2021/07/20 16:02:29;;;;;;;8.70;4.40;;;35.20;60.70;;;;;;5020406;28;20365;-67
2021/07/20 16:05:36;;;;;;;12.25;4.53;;;35.10;61.20;;;;;;5031513;28;20044;-68
2021/07/20 16:08:40;;;;;;;9.30;4.70;;;34.90;61.40;;;;;;5031506;28;20483;-67
2021/07/20 16:11:45;;;;;;;10.43;4.25;;;34.80;62.10;;;;;;5028667;28;20049;-67
2021/07/20 16:14:49;;;;;;;10.75;4.32;;;34.80;62.40;;;;;;5031312;28;20036;-68
2021/07/20 16:17:55;;;;;;;9.82;4.57;;;34.70;62.30;;;;;;5031625;28;20036;-67
2021/07/20 16:21:00;;;;;;;10.48;4.13;;;34.70;62.90;;;;;;5031126;28;20044;-68
2021/07/20 16:24:08;;;;;;;11.90;4.47;;;34.60;64.00;;;;;;5031382;28;20055;-68